createdAt,value
2018-07-21T00:00:13.131Z,6.40
2018-07-21T00:02:41.823Z,6.65
2018-07-21T00:05:10.507Z,7.12
2018-07-21T00:07:39.188Z,7.55
2018-07-21T00:10:07.892Z,7.95
2018-07-21T00:12:36.594Z,8.68
2018-07-21T00:15:04.928Z,6.30
2018-07-21T00:17:33.591Z,6.45
2018-07-21T00:20:02.563Z,7.12
2018-07-21T00:22:31.233Z,6.97
2018-07-21T00:24:59.888Z,6.12
2018-07-21T00:27:28.576Z,6.55
2018-07-21T00:29:57.227Z,7.20
2018-07-21T00:32:25.936Z,8.50
2018-07-21T00:34:54.616Z,6.58
2018-07-21T00:39:52.688Z,6.70
2018-07-21T00:42:21.426Z,7.08
2018-07-21T00:44:50.105Z,6.80
2018-07-21T00:47:18.817Z,6.75
2018-07-21T00:49:47.517Z,9.45
2018-07-21T00:52:16.218Z,7.40
2018-07-21T00:54:44.699Z,7.00
2018-07-21T00:57:13.437Z,6.40
2018-07-21T00:59:42.097Z,7.70
2018-07-21T01:02:11.030Z,6.10
2018-07-21T01:04:39.675Z,8.55
2018-07-21T01:07:08.415Z,7.37
2018-07-21T01:09:37.082Z,8.93
2018-07-21T01:12:05.812Z,6.95
2018-07-21T01:14:34.449Z,6.65
2018-07-21T01:17:03.171Z,6.53
2018-07-21T01:19:31.869Z,6.35
2018-07-21T01:22:00.530Z,6.50
2018-07-21T01:24:29.280Z,6.33
2018-07-21T01:26:57.943Z,7.45
2018-07-21T01:29:26.778Z,6.22
2018-07-21T01:31:55.466Z,6.65
2018-07-21T01:34:24.182Z,7.65
2018-07-21T01:36:52.811Z,6.78
2018-07-21T01:39:21.474Z,6.90
2018-07-21T01:41:50.167Z,6.15
2018-07-21T01:44:18.847Z,6.70
2018-07-21T01:46:47.541Z,6.72
2018-07-21T01:49:16.462Z,8.58
2018-07-21T01:51:45.207Z,5.97
2018-07-21T01:54:13.921Z,6.58
2018-07-21T01:56:42.633Z,7.20
2018-07-21T01:59:11.334Z,6.28
2018-07-21T02:01:39.989Z,6.15
2018-07-21T02:04:08.689Z,6.15
2018-07-21T02:06:37.350Z,6.10
2018-07-21T02:09:08.665Z,5.62
2018-07-21T02:11:37.410Z,6.70
2018-07-21T02:14:06.154Z,5.55
2018-07-21T02:16:34.845Z,6.20
2018-07-21T02:19:03.639Z,6.42
2018-07-21T02:21:32.435Z,5.87
2018-07-21T02:24:01.131Z,4.97
2018-07-21T02:26:29.805Z,5.47
2018-07-21T02:28:58.500Z,7.50
2018-07-21T02:31:27.221Z,6.17
2018-07-21T02:33:55.826Z,6.05
2018-07-21T02:36:24.485Z,6.78
2018-07-21T02:38:53.164Z,9.38
2018-07-21T02:41:21.845Z,6.47
2018-07-21T02:43:50.108Z,10.15
2018-07-21T02:46:21.804Z,6.00
2018-07-21T02:48:50.463Z,7.22
2018-07-21T02:51:19.141Z,7.03
2018-07-21T02:53:47.879Z,7.97
2018-07-21T02:56:16.577Z,8.08
2018-07-21T02:58:45.261Z,7.37
2018-07-21T03:01:14.138Z,7.10
2018-07-21T03:03:42.800Z,7.28
2018-07-21T03:06:11.456Z,7.95
2018-07-21T03:08:40.112Z,10.82
2018-07-21T03:11:08.743Z,8.73
2018-07-21T03:13:37.426Z,8.58
2018-07-21T03:16:06.225Z,8.23
2018-07-21T03:18:34.942Z,8.10
2018-07-21T03:21:03.669Z,10.00
2018-07-21T03:23:32.346Z,8.48
2018-07-21T03:26:01.019Z,10.32
2018-07-21T03:28:29.765Z,7.92
2018-07-21T03:30:58.557Z,8.58
2018-07-21T03:33:27.175Z,8.50
2018-07-21T03:35:55.840Z,8.53
2018-07-21T03:38:24.495Z,8.60
2018-07-21T03:40:53.122Z,8.65
2018-07-21T03:43:21.743Z,8.20
2018-07-21T03:45:50.395Z,7.85
2018-07-21T03:48:19.279Z,7.85
2018-07-21T03:50:48.034Z,8.33
2018-07-21T03:53:16.684Z,9.88
2018-07-21T03:55:45.359Z,7.67
2018-07-21T03:58:14.032Z,8.83
2018-07-21T04:00:42.694Z,7.30
2018-07-21T04:03:11.359Z,6.87
2018-07-21T04:05:39.989Z,6.80
2018-07-21T04:08:08.705Z,6.60
2018-07-21T04:10:37.397Z,6.50
2018-07-21T04:13:06.644Z,8.13
2018-07-21T04:15:34.923Z,6.67
2018-07-21T04:18:03.615Z,7.62
2018-07-21T04:20:32.281Z,6.65
2018-07-21T04:23:00.884Z,6.12
2018-07-21T04:25:29.538Z,6.67
2018-07-21T04:27:58.249Z,7.50
2018-07-21T04:30:26.931Z,6.80
2018-07-21T04:32:55.609Z,7.95
2018-07-21T04:35:24.271Z,9.50
2018-07-21T04:37:52.905Z,7.05
2018-07-21T04:40:21.564Z,7.75
2018-07-21T04:42:50.208Z,7.10
2018-07-21T04:45:18.811Z,6.65
2018-07-21T04:47:47.501Z,7.42
2018-07-21T04:50:16.252Z,8.15
2018-07-21T04:52:44.884Z,8.20
2018-07-21T04:55:13.683Z,8.70
2018-07-21T04:57:42.356Z,8.25
2018-07-21T05:00:11.028Z,10.45
2018-07-21T05:02:39.714Z,9.90
2018-07-21T05:05:08.394Z,8.33
2018-07-21T05:07:37.061Z,9.98
2018-07-21T05:10:05.812Z,10.47
2018-07-21T05:12:34.490Z,12.30
2018-07-21T05:15:03.231Z,10.10
2018-07-21T05:17:31.902Z,12.40
2018-07-21T05:20:00.578Z,10.13
2018-07-21T05:22:29.252Z,11.30
2018-07-21T05:24:57.537Z,11.18
2018-07-21T05:27:26.132Z,10.60
2018-07-21T05:29:54.748Z,10.33
2018-07-21T05:32:23.468Z,9.70
2018-07-21T05:34:52.054Z,11.60
2018-07-21T05:37:20.788Z,13.83
2018-07-21T05:39:49.395Z,13.30
2018-07-21T05:42:18.089Z,10.70
2018-07-21T05:44:46.695Z,10.90
2018-07-21T05:47:15.341Z,11.17
2018-07-21T05:49:43.983Z,10.87
2018-07-21T05:52:12.331Z,10.13
2018-07-21T05:54:41.061Z,12.33
2018-07-21T05:57:09.773Z,9.23
2018-07-21T05:59:38.444Z,10.40
2018-07-21T06:02:07.521Z,9.20
2018-07-21T06:04:36.209Z,8.50
2018-07-21T06:07:05.383Z,8.60
2018-07-21T06:09:34.032Z,8.95
2018-07-21T06:12:02.817Z,7.78
2018-07-21T06:14:31.432Z,8.40
2018-07-21T06:17:00.102Z,8.93
2018-07-21T06:19:28.752Z,8.17
2018-07-21T06:21:57.410Z,7.00
2018-07-21T06:24:26.072Z,6.75
2018-07-21T06:26:54.720Z,7.20
2018-07-21T06:29:23.369Z,6.90
2018-07-21T06:31:52.038Z,5.90
2018-07-21T06:34:20.845Z,6.87
2018-07-21T06:36:49.516Z,5.55
2018-07-21T06:39:18.177Z,5.28
2018-07-21T06:41:46.819Z,5.33
2018-07-21T06:44:15.725Z,5.97
2018-07-21T06:46:44.400Z,8.33
2018-07-21T06:49:13.040Z,5.90
2018-07-21T06:51:41.729Z,5.35
2018-07-21T06:54:10.408Z,8.10
2018-07-21T06:56:39.063Z,5.17
2018-07-21T06:59:07.812Z,5.12
2018-07-21T07:01:36.436Z,5.28
2018-07-21T07:04:05.067Z,5.42
2018-07-21T07:06:33.705Z,4.33
2018-07-21T07:09:02.354Z,5.83
2018-07-21T07:11:31.002Z,5.25
2018-07-21T07:13:59.660Z,6.17
2018-07-21T07:16:28.353Z,5.15
2018-07-21T07:18:57.015Z,5.03
2018-07-21T07:21:25.700Z,5.47
2018-07-21T07:23:54.333Z,4.40
2018-07-21T07:26:23.107Z,5.87
2018-07-21T07:28:52.087Z,5.08
2018-07-21T07:31:20.743Z,5.55
2018-07-21T07:33:49.378Z,6.72
2018-07-21T07:36:17.692Z,5.37
2018-07-21T07:38:46.386Z,5.40
2018-07-21T07:41:15.015Z,5.40
2018-07-21T07:43:43.653Z,5.50
2018-07-21T07:46:12.296Z,5.47
2018-07-21T07:48:40.953Z,6.17
2018-07-21T07:51:09.603Z,5.35
2018-07-21T07:53:38.294Z,5.33
2018-07-21T07:56:07.036Z,6.35
2018-07-21T07:58:35.721Z,5.80
2018-07-21T08:01:04.484Z,5.62
2018-07-21T08:03:33.157Z,5.50
2018-07-21T08:06:01.845Z,5.78
2018-07-21T08:08:30.633Z,6.03
2018-07-21T08:10:59.323Z,6.08
2018-07-21T08:13:28.318Z,7.35
2018-07-21T08:15:56.995Z,7.72
2018-07-21T08:18:25.642Z,5.45
2018-07-21T08:20:53.885Z,5.42
2018-07-21T08:23:22.613Z,5.25
2018-07-21T08:25:51.296Z,5.12
2018-07-21T08:28:19.940Z,7.85
2018-07-21T08:30:48.710Z,5.35
2018-07-21T08:33:17.024Z,6.28
2018-07-21T08:35:45.376Z,5.90
2018-07-21T08:38:14.078Z,7.08
2018-07-21T08:40:42.750Z,6.97
2018-07-21T08:43:11.416Z,6.95
2018-07-21T08:45:40.095Z,6.35
2018-07-21T08:48:08.716Z,5.47
2018-07-21T08:50:37.369Z,6.45
2018-07-21T08:53:06.041Z,6.28
2018-07-21T08:55:34.684Z,6.20
2018-07-21T08:58:03.374Z,5.90
2018-07-21T09:00:32.077Z,5.45
2018-07-21T09:03:00.745Z,5.00
2018-07-21T09:05:29.382Z,5.40
2018-07-21T09:07:58.031Z,5.55
2018-07-21T09:10:26.671Z,5.92
2018-07-21T09:12:55.503Z,6.15
2018-07-21T09:15:24.192Z,6.03
2018-07-21T09:17:52.804Z,8.65
2018-07-21T09:20:21.466Z,6.22
2018-07-21T09:22:50.093Z,5.60
2018-07-21T09:25:18.755Z,6.42
2018-07-21T09:27:52.523Z,5.95
2018-07-21T09:30:21.281Z,7.53
2018-07-21T09:32:49.962Z,6.80
2018-07-21T09:35:18.599Z,6.10
2018-07-21T09:37:47.265Z,8.85
2018-07-21T09:40:16.054Z,6.17
2018-07-21T09:42:44.745Z,8.10
2018-07-21T09:45:13.444Z,7.35
2018-07-21T09:47:42.120Z,7.60
2018-07-21T09:50:11.368Z,6.97
2018-07-21T09:52:40.228Z,6.45
2018-07-21T09:55:09.776Z,7.20
2018-07-21T09:57:38.881Z,5.92
2018-07-21T10:00:09.943Z,6.20
2018-07-21T10:02:38.618Z,5.80
2018-07-21T10:05:07.274Z,6.28
2018-07-21T10:07:35.638Z,6.35
2018-07-21T10:10:04.870Z,8.23
2018-07-21T10:12:33.536Z,6.92
2018-07-21T10:15:02.189Z,6.00
2018-07-21T10:17:30.906Z,6.65
2018-07-21T10:19:59.545Z,5.40
2018-07-21T10:22:28.254Z,6.83
2018-07-21T10:25:02.083Z,5.58
2018-07-21T10:27:35.946Z,10.45
2018-07-21T10:30:05.060Z,6.75
2018-07-21T10:32:33.749Z,6.22
2018-07-21T10:35:02.402Z,5.75
2018-07-21T10:37:31.052Z,6.53
2018-07-21T10:39:59.755Z,6.85
2018-07-21T10:42:28.408Z,5.65
2018-07-21T10:44:57.075Z,6.28
2018-07-21T10:47:25.722Z,6.12
2018-07-21T10:49:54.380Z,6.45
2018-07-21T10:52:23.054Z,6.03
2018-07-21T10:54:51.740Z,5.70
2018-07-21T10:57:20.377Z,6.12
2018-07-21T10:59:49.096Z,6.80
2018-07-21T11:02:17.754Z,7.10
2018-07-21T11:04:46.405Z,6.33
2018-07-21T11:07:15.081Z,6.25
2018-07-21T11:09:43.735Z,5.70
2018-07-21T11:12:12.388Z,5.75
2018-07-21T11:14:41.023Z,8.55
2018-07-21T11:17:09.612Z,6.35
2018-07-21T11:19:38.273Z,7.70
2018-07-21T11:22:06.915Z,5.80
2018-07-21T11:24:35.549Z,6.22
2018-07-21T11:27:04.254Z,5.45
2018-07-21T11:29:32.897Z,5.50
2018-07-21T11:32:01.551Z,5.72
2018-07-21T11:34:30.224Z,5.08
2018-07-21T11:36:58.909Z,5.60
2018-07-21T11:39:27.590Z,5.47
2018-07-21T11:41:56.282Z,5.45
2018-07-21T11:44:24.950Z,5.78
2018-07-21T11:46:54.252Z,5.78
2018-07-21T11:49:22.961Z,5.72
2018-07-21T11:51:51.570Z,4.80
2018-07-21T11:54:20.208Z,6.97
2018-07-21T11:56:48.877Z,6.22
2018-07-21T11:59:17.529Z,5.90
2018-07-21T12:01:46.261Z,6.17
2018-07-21T12:04:14.935Z,6.45
2018-07-21T12:06:43.600Z,5.85
2018-07-21T12:09:12.220Z,5.78
2018-07-21T12:11:40.496Z,7.62
2018-07-21T12:14:09.118Z,6.50
2018-07-21T12:16:37.773Z,6.33
2018-07-21T12:19:06.400Z,7.37
2018-07-21T12:21:35.313Z,5.85
2018-07-21T12:24:04.078Z,5.60
2018-07-21T12:26:32.775Z,5.97
2018-07-21T12:29:01.366Z,5.78
2018-07-21T12:31:29.983Z,7.45
2018-07-21T12:33:58.620Z,6.75
2018-07-21T12:36:27.268Z,6.30
2018-07-21T12:38:55.966Z,5.78
2018-07-21T12:41:24.691Z,6.20
2018-07-21T12:43:53.381Z,6.47
2018-07-21T12:46:21.666Z,5.72
2018-07-21T12:48:50.350Z,5.50
2018-07-21T12:51:19.084Z,6.55
2018-07-21T12:53:47.813Z,6.85
2018-07-21T12:56:16.474Z,6.45
2018-07-21T12:58:45.134Z,5.62
2018-07-21T13:01:13.796Z,6.53
2018-07-21T13:03:42.082Z,6.60
2018-07-21T13:06:10.797Z,6.28
2018-07-21T13:08:39.471Z,6.80
2018-07-21T13:11:08.105Z,6.45
2018-07-21T13:13:36.841Z,7.45
2018-07-21T13:16:05.505Z,5.90
2018-07-21T13:18:34.191Z,5.70
2018-07-21T13:21:02.859Z,5.87
2018-07-21T13:23:31.527Z,5.90
2018-07-21T13:26:00.182Z,6.62
2018-07-21T13:28:28.840Z,5.97
2018-07-21T13:30:57.665Z,7.05
2018-07-21T13:33:26.333Z,5.80
2018-07-21T14:57:53.549Z,5.35
2018-07-21T15:00:22.145Z,5.08
2018-07-21T15:02:50.798Z,5.58
2018-07-21T15:05:19.475Z,5.55
2018-07-21T15:07:48.139Z,5.60
2018-07-21T15:10:16.866Z,5.62
2018-07-21T15:12:45.553Z,6.67
2018-07-21T15:15:14.218Z,6.08
2018-07-21T15:17:42.878Z,5.42
2018-07-21T15:20:11.586Z,9.45
2018-07-21T15:22:40.248Z,6.17
2018-07-21T15:25:08.912Z,9.05
2018-07-21T15:27:37.598Z,5.53
2018-07-21T15:30:06.500Z,7.62
2018-07-21T15:32:35.169Z,5.78
2018-07-21T15:35:03.491Z,5.17
2018-07-21T15:37:32.153Z,4.80
2018-07-21T15:40:00.845Z,6.42
2018-07-21T15:42:29.472Z,6.67
2018-07-21T15:44:58.134Z,6.20
2018-07-21T15:47:26.743Z,5.67
2018-07-21T15:49:55.380Z,9.00
2018-07-21T15:52:23.989Z,5.05
2018-07-21T15:54:52.725Z,6.05
2018-07-21T15:57:21.471Z,5.65
2018-07-21T15:59:50.194Z,5.58
2018-07-21T16:02:19.028Z,5.95
2018-07-21T16:04:47.701Z,5.35
2018-07-21T16:07:16.374Z,5.67
2018-07-21T16:09:45.460Z,6.37
2018-07-21T16:12:14.104Z,6.22
2018-07-21T16:14:42.773Z,6.47
2018-07-21T16:17:11.364Z,6.58
2018-07-21T16:19:39.982Z,6.50
2018-07-21T16:22:08.908Z,7.80
2018-07-21T16:24:38.696Z,6.65
2018-07-21T16:27:07.406Z,11.10
2018-07-21T16:29:36.102Z,7.90
2018-07-21T16:32:04.798Z,7.42
2018-07-21T16:34:33.538Z,7.53
2018-07-21T16:37:02.244Z,8.65
2018-07-21T16:39:30.919Z,7.70
2018-07-21T16:41:59.560Z,7.75
2018-07-21T16:44:28.206Z,8.03
2018-07-21T16:46:56.873Z,7.87
2018-07-21T16:49:25.532Z,7.97
2018-07-21T16:51:54.378Z,7.92
2018-07-21T16:54:23.137Z,6.72
2018-07-21T16:56:51.728Z,7.80
2018-07-21T16:59:20.388Z,7.85
2018-07-21T17:01:49.016Z,9.70
2018-07-21T17:04:17.736Z,10.85
2018-07-21T17:06:46.383Z,8.58
2018-07-21T17:09:15.051Z,9.00
2018-07-21T17:11:43.729Z,8.55
2018-07-21T17:14:12.416Z,9.98
2018-07-21T17:16:41.068Z,9.75
2018-07-21T17:19:09.788Z,7.55
2018-07-21T17:21:38.418Z,8.98
2018-07-21T17:24:07.076Z,8.43
2018-07-21T17:26:35.666Z,8.10
2018-07-21T17:29:04.294Z,7.83
2018-07-21T17:31:32.907Z,11.18
2018-07-21T17:34:01.597Z,8.85
2018-07-21T17:36:30.260Z,8.58
2018-07-21T17:38:58.916Z,11.20
2018-07-21T17:41:27.817Z,9.23
2018-07-21T17:43:56.540Z,9.75
2018-07-21T17:46:25.155Z,11.22
2018-07-21T17:48:53.869Z,11.55
2018-07-21T17:51:22.176Z,8.40
2018-07-21T17:53:50.850Z,9.80
2018-07-21T17:56:19.565Z,9.78
2018-07-21T17:58:48.217Z,8.18
2018-07-21T18:01:16.952Z,9.63
2018-07-21T18:03:45.641Z,10.43
2018-07-21T18:06:14.325Z,11.28
2018-07-21T18:08:42.994Z,10.55
2018-07-21T18:11:11.664Z,12.18
2018-07-21T18:13:40.343Z,11.50
2018-07-21T18:16:08.623Z,10.65
2018-07-21T18:18:37.311Z,10.80
2018-07-21T18:21:05.955Z,9.30
2018-07-21T18:23:34.648Z,8.65
2018-07-21T18:26:03.576Z,8.05
2018-07-21T18:28:32.259Z,8.43
2018-07-21T18:31:00.934Z,8.33
2018-07-21T18:33:29.628Z,9.20
2018-07-21T18:35:58.325Z,9.33
2018-07-21T18:38:27.021Z,9.75
2018-07-21T18:40:55.660Z,9.55
2018-07-21T18:43:24.346Z,10.18
2018-07-21T18:45:53.093Z,10.00
2018-07-21T18:48:21.792Z,10.15
2018-07-21T18:50:50.479Z,9.35
2018-07-21T18:53:19.136Z,9.38
2018-07-21T18:55:47.806Z,10.03
2018-07-21T18:58:16.448Z,9.30
2018-07-21T19:00:45.079Z,9.40
2018-07-21T19:03:13.740Z,8.95
2018-07-21T19:05:42.406Z,9.68
2018-07-21T19:08:15.227Z,9.30
2018-07-21T19:10:43.895Z,9.78
2018-07-21T19:13:12.574Z,10.78
2018-07-21T19:15:46.411Z,10.08
2018-07-21T19:18:15.034Z,9.88
2018-07-21T19:20:49.006Z,10.25
2018-07-21T19:23:17.674Z,10.98
2018-07-21T19:25:51.491Z,9.45
2018-07-21T19:28:20.165Z,9.00
2018-07-21T19:30:48.814Z,10.30
2018-07-21T19:33:17.498Z,11.75
2018-07-21T19:35:46.171Z,11.60
2018-07-21T19:38:14.811Z,11.53
2018-07-21T19:40:43.485Z,12.03
2018-07-21T19:43:12.128Z,11.57
2018-07-21T19:45:40.823Z,12.30
2018-07-21T19:48:09.458Z,12.60
2018-07-21T19:50:38.109Z,15.35
2018-07-21T19:53:06.829Z,15.78
2018-07-21T19:55:35.489Z,14.90
2018-07-21T19:58:04.231Z,17.37
2018-07-21T20:00:32.900Z,13.28
2018-07-21T20:03:01.540Z,12.98
2018-07-21T20:05:30.250Z,12.05
2018-07-21T20:07:58.907Z,12.78
2018-07-21T20:10:27.563Z,14.07
2018-07-21T20:12:56.260Z,14.55
2018-07-21T20:15:24.928Z,11.95
2018-07-21T20:17:53.545Z,12.68
2018-07-21T20:20:22.192Z,11.65
2018-07-21T20:22:50.884Z,13.00
2018-07-21T20:25:19.576Z,11.65
2018-07-21T20:27:48.259Z,10.48
2018-07-21T20:30:17.219Z,10.23
2018-07-21T20:32:45.887Z,13.35
2018-07-21T20:35:14.548Z,11.68
2018-07-21T20:37:43.188Z,11.95
2018-07-21T20:40:11.879Z,11.90
2018-07-21T20:42:40.585Z,11.70
2018-07-21T20:45:09.266Z,11.38
2018-07-21T20:47:37.950Z,10.25
2018-07-21T20:50:06.619Z,12.03
2018-07-21T20:52:35.295Z,10.58
2018-07-21T20:55:04.039Z,12.43
2018-07-21T20:58:35.359Z,14.73
2018-07-21T21:01:04.046Z,13.28
2018-07-21T21:03:32.662Z,16.65
2018-07-21T21:06:01.325Z,13.93
2018-07-21T21:08:30.041Z,12.95
2018-07-21T21:10:58.702Z,13.45
2018-07-21T21:13:27.585Z,12.50
2018-07-21T21:15:56.293Z,12.82
2018-07-21T21:18:25.034Z,12.75
2018-07-21T21:20:53.860Z,12.63
2018-07-21T21:23:22.536Z,12.73
2018-07-21T21:25:51.328Z,14.03
2018-07-21T21:28:20.153Z,11.35
2018-07-21T21:30:48.800Z,10.60
2018-07-21T21:33:17.492Z,9.93
2018-07-21T21:35:46.173Z,9.95
2018-07-21T21:38:14.847Z,10.43
2018-07-21T21:40:43.519Z,10.23
2018-07-21T21:43:12.162Z,9.83
2018-07-21T21:45:40.866Z,9.35
2018-07-21T21:48:09.607Z,9.80
2018-07-21T21:50:38.280Z,10.13
2018-07-21T21:53:07.016Z,9.43
2018-07-21T21:55:35.669Z,8.75
2018-07-21T21:58:04.454Z,10.28
2018-07-21T22:01:06.999Z,9.78
2018-07-21T22:03:36.228Z,9.83
2018-07-21T22:06:05.112Z,10.10
2018-07-21T22:08:34.090Z,10.50
2018-07-21T22:11:03.231Z,9.58
2018-07-21T22:13:31.910Z,10.35
2018-07-21T22:16:00.956Z,9.75
2018-07-21T22:18:30.434Z,8.83
2018-07-21T22:20:59.120Z,10.18
2018-07-21T22:23:27.785Z,9.35
2018-07-21T22:25:56.456Z,11.05
2018-07-21T22:28:25.120Z,11.50
2018-07-21T22:30:53.776Z,10.18
2018-07-21T22:33:22.472Z,10.95
2018-07-21T22:35:51.157Z,10.25
2018-07-21T22:38:19.879Z,10.30
2018-07-21T22:40:48.560Z,10.55
2018-07-21T22:43:16.837Z,9.05
2018-07-21T22:45:45.130Z,9.45
2018-07-21T22:48:13.794Z,9.88
2018-07-21T22:50:42.445Z,9.90
2018-07-21T22:53:11.092Z,10.60
2018-07-21T22:55:39.697Z,10.63
2018-07-21T22:58:08.372Z,10.60
2018-07-21T23:00:37.073Z,10.98
2018-07-21T23:03:05.789Z,13.08
2018-07-21T23:05:34.541Z,12.53
2018-07-21T23:08:03.227Z,11.18
2018-07-21T23:10:31.897Z,11.60
2018-07-21T23:13:00.650Z,10.95
2018-07-21T23:15:29.324Z,11.20
2018-07-21T23:17:58.225Z,10.43
2018-07-21T23:20:26.855Z,9.63
2018-07-21T23:22:55.495Z,9.93
2018-07-21T23:25:24.118Z,11.25
2018-07-21T23:27:52.833Z,10.55
2018-07-21T23:30:21.562Z,12.40
2018-07-21T23:32:50.237Z,11.53
2018-07-21T23:35:18.914Z,11.68
2018-07-21T23:37:47.572Z,11.97
2018-07-21T23:40:16.286Z,14.25
2018-07-21T23:42:45.013Z,13.18
2018-07-21T23:45:13.778Z,13.65
2018-07-21T23:47:42.440Z,11.75
2018-07-21T23:50:11.162Z,10.58
2018-07-21T23:52:39.455Z,11.53
2018-07-21T23:55:08.872Z,11.35
2018-07-21T23:57:38.010Z,10.55
